Fort Bliss, Texas
Current Conditions -  °F | °C
As of 2:58 PM on Sunday 21 Dec 2014 (Local Time) from KBIF Reporting Station
Clear Clear  
Wind Chill: 62°   Ceiling: Unl
Heat Index: 62°   Visibility: 7mi
Dew Point: 24°   Wind: 9mph
Humidity: 24%   Direction: 240°WSW
Pressure: 29.93"   Gusts: NA
Location:  31.8335°N, 106.423°W
Report Text: KBIF 212158Z AUTO 24008KT 7SM CLR 16/M04 A2993 RMK AO2 SLP111 T01641044 $
Loading
Personal Weather Stations






























Interactive Weather Map New forecast layout! Learn more

10-Day Weather Forecast

Advertisements
Track Severe Weather on mobile